This is the latest recevied weather packets stored in our database for station/object EA7BW-10. If no packets are shown the sender has not sent any weather packets the latest 10 day(s).
| Time | Temp. | Humidity | Pressure | Rain* | Wind** | Luminosity | Snow |
|---|---|---|---|---|---|---|---|
| 1777546980 | 30° C | 45% | 1010.9 hPa | - | - | - | - |
| 1777545780 | 27.78° C | 50% | 1011.2 hPa | - | - | - | - |
| 1777544580 | 27.22° C | 51% | 1011.4 hPa | - | - | - | - |
| 1777543380 | 29.44° C | 49% | 1011.5 hPa | - | - | - | - |
| 1777542180 | 30° C | 49% | 1011.5 hPa | - | - | - | - |
| 1777540980 | 30.56° C | 48% | 1011.5 hPa | - | - | - | - |
| 1777539779 | 28.33° C | 51% | 1011.3 hPa | - | - | - | - |
| 1777538579 | 28.33° C | 50% | 1011.3 hPa | - | - | - | - |
| 1777537379 | 26.11° C | 52% | 1011.3 hPa | - | - | - | - |
| 1777536179 | 23.89° C | 54% | 1011.1 hPa | - | - | - | - |
| 1777534979 | 20° C | 57% | 1011.4 hPa | - | - | - | - |
| 1777533784 | 16.67° C | 62% | 1011.7 hPa | - | - | - | - |
| 1777532579 | 15.56° C | 62% | 1011.4 hPa | - | - | - | - |
| 1777531379 | 13.33° C | 66% | 1011.5 hPa | - | - | - | - |
| 1777530179 | 12.78° C | 66% | 1011.4 hPa | - | - | - | - |
| 1777528978 | 11.67° C | 67% | 1011.5 hPa | - | - | - | - |
| 1777527778 | 11.11° C | 67% | 1011.2 hPa | - | - | - | - |
| 1777526578 | 11.11° C | 68% | 1011 hPa | - | - | - | - |
| 1777525378 | 11.11° C | 67% | 1010.9 hPa | - | - | - | - |
| 1777524178 | 11.11° C | 67% | 1010.8 hPa | - | - | - | - |
| 1777522978 | 11.11° C | 67% | 1010.5 hPa | - | - | - | - |
| 1777521778 | 11.67° C | 66% | 1010.4 hPa | - | - | - | - |
| 1777520578 | 11.67° C | 67% | 1010.3 hPa | - | - | - | - |
| 1777519378 | 12.22° C | 66% | 1010.1 hPa | - | - | - | - |
| 1777518178 | 12.22° C | 66% | 1010.2 hPa | - | - | - | - |
* Rain since midnight (hover to see other rain measurements)
** Current wind speed in m/s (hover to see current wind gust speed)